Data for 03/14/2016

Time Sea-Level Adjusted Pressure Absolute Pressure Temperature Relative Humidity Dew Point   
(mb) (inHg) (mb) (inHg) (C) (F) (%) (C) (F)
00:05 1004 29.65 833 24.6 4.2 39.6 81 1.3 34.4
00:10 1004 29.65 833 24.6 4 39.3 82 1.2 34.2
00:15 1004 29.65 833 24.6 3.9 39.1 82 1.2 34.2
00:20 1004 29.65 833 24.6 3.8 38.8 83 1.2 34.1
00:25 1004 29.65 833 24.6 3.5 38.4 84 1.1 33.9
00:30 1004 29.65 833 24.6 3.3 37.9 85 0.9 33.7
00:35 1004 29.65 833 24.6 3.1 37.6 85 0.8 33.4
00:40 1004 29.65 833 24.6 2.9 37.3 86 0.8 33.5
00:45 1004 29.65 833 24.6 2.8 37 87 0.8 33.4
00:50 1004 29.65 833 24.6 2.6 36.6 88 0.7 33.2
00:55 1004 29.65 833 24.6 2.4 36.4 88 0.6 33
01:00 1004 29.65 833 24.6 2.4 36.4 87 0.4 32.8
01:05 1004 29.65 833 24.6 2.4 36.4 87 0.4 32.8
01:10 1004 29.65 833 24.6 2.4 36.3 87 0.4 32.8
01:15 1004 29.65 833 24.6 2.4 36.4 87 0.5 32.9
01:20 1004 29.65 833 24.6 2.4 36.4 87 0.5 32.8
01:25 1004 29.65 833 24.6 2.5 36.4 87 0.5 32.9
01:30 1004 29.65 833 24.6 2.3 36.1 88 0.4 32.8
01:35 1003 29.62 833 24.6 2.2 35.9 88 0.3 32.6
01:40 1003 29.62 833 24.6 2.2 35.9 88 0.4 32.7
01:45 1003 29.62 832 24.57 2.1 35.8 88 0.4 32.7
01:50 1003 29.62 832 24.57 2 35.5 89 0.3 32.5
01:55 1003 29.62 832 24.57 1.8 35.2 90 0.3 32.5
02:00 1003 29.62 832 24.57 1.7 35 90 0.2 32.4
02:05 1003 29.62 832 24.57 1.6 35 90 0.2 32.4
02:10 1003 29.62 832 24.57 1.6 34.9 90 0.1 32.2
02:15 1003 29.62 832 24.57 1.6 34.9 90 0.1 32.2
02:20 1003 29.62 832 24.57 1.6 34.9 90 0.1 32.1
02:25 1002 29.59 832 24.57 1.6 34.8 90 0 32.1
02:30 1002 29.59 831 24.54 1.5 34.7 90 0 32.1
02:35 1002 29.59 831 24.54 1.4 34.6 91 0 32.1
02:40 1002 29.59 831 24.54 1.5 34.6 90 0 32
02:45 1002 29.59 831 24.54 1.5 34.7 90 0 32
02:50 1002 29.59 831 24.54 1.6 34.9 89 0 32
02:55 1002 29.59 831 24.54 1.7 35.1 88 -0 32
03:00 1002 29.59 831 24.54 1.7 35.1 89 0 32
03:05 1002 29.59 831 24.54 1.8 35.2 88 0 32.1
03:10 1002 29.59 831 24.54 1.9 35.3 88 0.1 32.1
03:15 1001 29.56 831 24.54 1.8 35.2 89 0.1 32.2
03:20 1001 29.56 831 24.54 1.8 35.3 88 0.1 32.1
03:25 1001 29.56 831 24.54 1.9 35.5 88 0.1 32.1
03:30 1001 29.56 831 24.54 2 35.7 86 0 32
03:35 1001 29.56 831 24.54 2.1 35.8 86 0 32
03:40 1002 29.59 831 24.54 2.3 36.1 85 0 32
03:45 1002 29.59 831 24.54 2.7 36.9 80 -0.4 31.3
03:50 1002 29.59 831 24.54 3.3 37.9 80 0.1 32.2
03:55 1002 29.59 831 24.54 3.1 37.6 83 0.5 32.9
04:00 1002 29.59 831 24.54 2.9 37.2 83 0.3 32.6
04:05 1002 29.59 831 24.54 2.5 36.6 85 0.3 32.5
04:10 1001 29.56 830 24.51 2 35.7 86 -0.1 31.9
04:15 1001 29.56 830 24.51 2.4 36.4 83 -0.2 31.7
04:20 1001 29.56 830 24.51 2.4 36.3 85 0.2 32.4
04:25 1001 29.56 830 24.51 2.2 36 86 0.2 32.3
04:30 1001 29.56 830 24.51 2 35.6 87 0 32
04:35 1001 29.56 830 24.51 2.1 35.8 85 -0.2 31.7
04:40 1002 29.59 831 24.54 2.4 36.4 80 -0.6 30.9
04:45 1003 29.62 832 24.57 1.3 34.4 87 -0.6 31
04:50 1003 29.62 832 24.57 0.5 32.8 91 -0.9 30.4
04:55 1004 29.65 833 24.6 0.1 32.1 92 -1 30.2
05:00 1004 29.65 833 24.6 -0.1 31.8 93 -1.1 30.1
05:05 1004 29.65 833 24.6 -0.2 31.6 94 -1.1 30
05:10 1004 29.65 833 24.6 -0.3 31.5 94 -1.1 30
05:15 1004 29.65 834 24.63 -0.3 31.4 94 -1.1 30
05:20 1004 29.65 834 24.63 -0.4 31.4 95 -1.1 30
05:25 1005 29.68 834 24.63 -0.4 31.4 95 -1.1 30
05:30 1005 29.68 834 24.63 -0.3 31.4 95 -1.1 30.1
05:35 1005 29.68 834 24.63 -0.3 31.4 95 -1.1 30
05:40 1005 29.68 834 24.63 -0.3 31.4 95 -1 30.1
05:45 1005 29.68 834 24.63 -0.4 31.4 95 -1.1 30.1
05:50 1004 29.65 834 24.63 -0.4 31.3 95 -1.1 30
05:55 1004 29.65 834 24.63 -0.4 31.3 95 -1.1 30
06:00 1004 29.65 834 24.63 -0.4 31.3 95 -1.1 30.1
06:05 1004 29.65 834 24.63 -0.4 31.3 95 -1.1 30
06:10 1005 29.68 834 24.63 -0.3 31.4 95 -1 30.2
06:15 1005 29.68 834 24.63 -0.4 31.3 95 -1.1 30.1
06:20 1005 29.68 834 24.63 -0.5 31 95 -1.2 29.8
06:25 1005 29.68 834 24.63 -0.6 30.9 95 -1.3 29.7
06:30 1005 29.68 834 24.63 -0.6 30.9 95 -1.3 29.7
06:35 1005 29.68 834 24.63 -0.6 30.8 95 -1.3 29.6
06:40 1005 29.68 834 24.63 -0.7 30.8 95 -1.4 29.5
06:45 1005 29.68 834 24.63 -0.6 30.8 95 -1.3 29.6
06:50 1005 29.68 834 24.63 -0.6 30.9 95 -1.3 29.7
06:55 1005 29.68 834 24.63 -0.7 30.8 95 -1.3 29.6
07:00 1005 29.68 834 24.63 -0.7 30.7 95 -1.4 29.5
07:05 1005 29.68 834 24.63 -0.7 30.7 95 -1.4 29.4
07:10 1005 29.68 834 24.63 -0.7 30.8 95 -1.4 29.5
07:15 1005 29.68 834 24.63 -0.6 30.9 95 -1.3 29.6
07:20 1005 29.68 834 24.63 -0.4 31.3 94 -1.2 29.8
07:25 1005 29.68 834 24.63 -0.4 31.3 93 -1.4 29.6
07:30 1005 29.68 834 24.63 -0.2 31.6 93 -1.3 29.7
07:35 1005 29.68 834 24.63 -0.2 31.7 91 -1.4 29.5
07:40 1005 29.68 834 24.63 -0.5 31.1 91 -1.8 28.8
07:45 1005 29.68 834 24.63 -0.6 31 91 -1.8 28.7
07:50 1005 29.68 834 24.63 -0.4 31.2 91 -1.8 28.8
07:55 1005 29.68 834 24.63 -0.4 31.3 91 -1.7 28.9
08:00 1005 29.68 834 24.63 -0.3 31.5 90 -1.7 28.9
08:05 1005 29.68 834 24.63 -0.2 31.6 90 -1.7 28.9
08:10 1005 29.68 834 24.63 -0.1 31.8 89 -1.8 28.8
08:15 1005 29.68 834 24.63 0.2 32.3 87 -1.7 28.9
08:20 1005 29.68 835 24.66 0.3 32.6 87 -1.6 29.1
08:25 1005 29.68 835 24.66 0.5 32.8 87 -1.4 29.5
08:30 1005 29.68 835 24.66 0.6 33.1 86 -1.5 29.3
08:35 1006 29.71 835 24.66 0.6 33 86 -1.5 29.3
08:40 1006 29.71 835 24.66 0.6 33.1 85 -1.7 29
08:45 1006 29.71 835 24.66 0.8 33.5 86 -1.3 29.6
08:50 1006 29.71 835 24.66 0.9 33.6 85 -1.4 29.5
08:55 1006 29.71 835 24.66 1 33.9 84 -1.4 29.5
09:00 1006 29.71 835 24.66 1.3 34.4 85 -0.9 30.3
09:05 1006 29.71 835 24.66 1.5 34.8 86 -0.6 30.9
09:10 1006 29.71 835 24.66 1.6 34.8 83 -1.1 30
09:15 1006 29.71 835 24.66 1.7 35 80 -1.5 29.3
09:20 1006 29.71 835 24.66 1.7 35 78 -1.8 28.8
09:25 1006 29.71 835 24.66 1.6 34.8 79 -1.7 28.9
09:30 1006 29.71 835 24.66 1.6 34.8 77 -2 28.3
09:35 1006 29.71 835 24.66 1.6 34.9 78 -1.8 28.8
09:40 1006 29.71 835 24.66 2 35.6 74 -2.2 28
09:45 1006 29.71 835 24.66 2.1 35.7 74 -2.2 28.1
09:50 1006 29.71 835 24.66 2.1 35.8 75 -1.9 28.6
09:55 1006 29.71 835 24.66 2.2 35.9 73 -2.1 28.2
10:00 1006 29.71 835 24.66 1.9 35.4 74 -2.2 28.1
10:05 1006 29.71 835 24.66 1.9 35.3 76 -1.9 28.6
10:10 1006 29.71 835 24.66 1.9 35.5 74 -2.2 28
10:15 1006 29.71 836 24.69 2.1 35.7 74 -2 28.3
10:20 1006 29.71 836 24.69 2.6 36.7 72 -1.9 28.7
10:25 1006 29.71 836 24.69 3.1 37.5 70 -1.9 28.6
10:30 1007 29.74 836 24.69 3.2 37.8 67 -2.3 27.9
10:35 1006 29.71 836 24.69 3.3 37.9 65 -2.8 27
10:40 1007 29.74 836 24.69 3.4 38.2 62 -3.1 26.5
10:45 1007 29.74 836 24.69 4.3 39.8 60 -2.8 27
10:50 1006 29.71 836 24.69 5.2 41.4 60 -1.9 28.6
10:55 1007 29.74 836 24.69 5.3 41.5 56 -2.7 27.2
11:00 1007 29.74 836 24.69 4.6 40.2 60 -2.5 27.4
11:05 1007 29.74 836 24.69 4.6 40.3 61 -2.2 28
11:10 1007 29.74 836 24.69 4.7 40.4 60 -2.4 27.7
11:15 1007 29.74 836 24.69 4.4 40 62 -2.2 28
11:20 1006 29.71 836 24.69 4.3 39.7 64 -2 28.4
11:25 1006 29.71 836 24.69 4.2 39.6 64 -2 28.3
11:30 1006 29.71 836 24.69 4.6 40.3 62 -2.1 28.3
11:35 1006 29.71 836 24.69 5 41 59 -2.3 27.8
11:40 1006 29.71 836 24.69 5.2 41.3 65 -0.8 30.5
11:45 1006 29.71 836 24.69 5.6 42.1 65 -0.5 31.1
11:50 1006 29.71 836 24.69 6.3 43.3 59 -1.1 30
11:55 1007 29.74 836 24.69 6.5 43.8 51 -2.8 26.9
12:00 1007 29.74 836 24.69 5.7 42.3 63 -0.8 30.6
12:05 1007 29.74 836 24.69 4.8 40.6 69 -0.4 31.3
12:10 1007 29.74 836 24.69 2.7 36.9 77 -1 30.3
12:15 1007 29.74 836 24.69 2 35.7 75 -2 28.5
12:20 1007 29.74 836 24.69 2 35.6 76 -1.8 28.7
12:25 1007 29.74 836 24.69 2.2 36 73 -2.2 28
12:30 1007 29.74 836 24.69 2.7 36.8 66 -3 26.6
12:35 1007 29.74 836 24.69 3.3 38 63 -3.1 26.3
12:40 1007 29.74 836 24.69 3.3 38 64 -2.8 26.9
12:45 1007 29.74 836 24.69 2.8 37.1 64 -3.3 26.1
12:50 1007 29.74 836 24.69 2.9 37.1 61 -4 24.8
12:55 1007 29.74 836 24.69 3 37.3 59 -4.2 24.5
13:00 1007 29.74 836 24.69 3.3 38 59 -4 24.8
13:05 1007 29.74 836 24.69 3.5 38.2 59 -3.8 25.1
13:10 1007 29.74 836 24.69 3.8 38.9 58 -3.7 25.3
13:15 1007 29.74 836 24.69 4.1 39.4 55 -4.2 24.4
13:20 1007 29.74 836 24.69 4.2 39.5 52 -4.9 23.3
13:25 1007 29.74 836 24.69 4.8 40.6 48 -5.3 22.4
13:30 1007 29.74 836 24.69 5.9 42.6 45 -5.1 22.9
13:35 1007 29.74 836 24.69 6.3 43.4 42 -5.6 21.9
13:40 1007 29.74 836 24.69 5.8 42.4 43 -5.8 21.6
13:45 1007 29.74 836 24.69 5.5 41.8 43 -6.2 20.9
13:50 1007 29.74 836 24.69 5.4 41.7 45 -5.7 21.8
13:55 1006 29.71 836 24.69 5.3 41.6 42 -6.6 20
14:00 1006 29.71 836 24.69 5.1 41.2 41 -7.2 19
14:05 1006 29.71 836 24.69 4.9 40.8 42 -6.9 19.6
14:10 1007 29.74 836 24.69 3.8 38.9 57 -3.9 25
14:15 1007 29.74 836 24.69 1.9 35.5 68 -3.3 26
14:20 1007 29.74 837 24.72 1.3 34.4 67 -4.2 24.5
14:25 1008 29.77 837 24.72 1 33.7 67 -4.6 23.8
14:30 1008 29.77 837 24.72 0.7 33.3 61 -6 21.3
14:35 1008 29.77 837 24.72 0.9 33.6 66 -4.8 23.3
14:40 1008 29.77 837 24.72 1 33.7 61 -5.8 21.5
14:45 1008 29.77 837 24.72 1.1 34 62 -5.3 22.5
14:50 1008 29.77 837 24.72 1 33.8 61 -5.6 21.9
14:55 1008 29.77 837 24.72 1.1 33.9 60 -5.9 21.4
15:00 1008 29.77 837 24.72 1 33.8 65 -4.9 23.2
15:05 1008 29.77 837 24.72 0.8 33.4 58 -6.5 20.3
15:10 1008 29.77 837 24.72 1.4 34.5 48 -8.3 17
15:15 1008 29.77 837 24.72 2.1 35.8 52 -6.6 20.1
15:20 1009 29.8 838 24.75 2.2 35.9 58 -5.2 22.7
15:25 1009 29.8 838 24.75 2.1 35.7 65 -3.9 25
15:30 1009 29.8 838 24.75 1.1 34 77 -2.5 27.5
15:35 1009 29.8 838 24.75 -0.1 31.8 82 -2.8 26.9
15:40 1009 29.8 838 24.75 -0.6 31 85 -2.8 26.9
15:45 1009 29.8 838 24.75 -1.3 29.6 89 -2.9 26.8
15:50 1009 29.8 839 24.78 -1.6 29.1 91 -2.9 26.8
15:55 1009 29.8 838 24.75 -1.7 29 91 -2.9 26.8
16:00 1009 29.8 839 24.78 -1.7 28.9 91 -3 26.7
16:05 1009 29.8 839 24.78 -1.7 28.9 91 -3.1 26.5
16:10 1009 29.8 839 24.78 -1.7 28.9 91 -2.9 26.7
16:15 1010 29.83 839 24.78 -1.5 29.2 91 -2.8 26.9
16:20 1010 29.83 839 24.78 -1.4 29.6 90 -2.8 27
16:25 1010 29.83 839 24.78 -1.3 29.6 90 -2.7 27.1
16:30 1010 29.83 839 24.78 -1.3 29.7 90 -2.7 27.2
16:35 1010 29.83 839 24.78 -1.3 29.6 90 -2.7 27.1
16:40 1010 29.83 839 24.78 -1.5 29.3 92 -2.6 27.3
16:45 1010 29.83 839 24.78 -1.3 29.7 91 -2.6 27.3
16:50 1010 29.83 839 24.78 -1.2 29.9 90 -2.6 27.2
16:55 1010 29.83 840 24.81 -1.2 29.9 88 -3 26.7
17:00 1010 29.83 840 24.81 -1.3 29.6 89 -3 26.7
17:05 1010 29.83 840 24.81 -1.2 29.9 88 -3 26.7
17:10 1011 29.85 840 24.81 -1.2 29.8 88 -3 26.6
17:15 1011 29.85 840 24.81 -1.5 29.4 90 -2.9 26.8
17:20 1011 29.85 840 24.81 -1.6 29.1 91 -2.9 26.7
17:25 1011 29.85 840 24.81 -1.5 29.2 91 -2.8 26.9
17:30 1011 29.85 840 24.81 -1.5 29.4 91 -2.7 27.1
17:35 1011 29.85 840 24.81 -1.3 29.6 81 -4.2 24.5
17:40 1011 29.85 840 24.81 -1 30.1 76 -4.8 23.4
17:45 1011 29.85 840 24.81 -0.9 30.3 82 -3.6 25.5
17:50 1011 29.85 840 24.81 -1 30.1 80 -4.1 24.6
17:55 1011 29.85 840 24.81 -1.1 30 86 -3.2 26.2
18:00 1011 29.85 840 24.81 -1.4 29.5 88 -3.1 26.3
18:05 1011 29.85 840 24.81 -1.5 29.3 88 -3.2 26.2
18:10 1011 29.85 840 24.81 -1.5 29.2 88 -3.2 26.2
18:15 1011 29.85 840 24.81 -1.5 29.3 89 -3.1 26.3
18:20 1011 29.85 840 24.81 -1.4 29.5 88 -3.1 26.4
18:25 1011 29.85 840 24.81 -1.4 29.5 89 -3 26.5
18:30 1011 29.85 840 24.81 -1.4 29.5 88 -3.1 26.4
18:35 1011 29.85 841 24.83 -1.7 29 89 -3.2 26.3
18:40 1011 29.85 840 24.81 -1.8 28.7 89 -3.4 26
18:45 1011 29.85 841 24.83 -1.8 28.7 89 -3.4 25.8
18:50 1011 29.85 841 24.83 -1.8 28.7 89 -3.5 25.7
18:55 1011 29.85 841 24.83 -1.7 28.9 83 -4.2 24.5
19:00 1011 29.85 841 24.83 -1.3 29.6 83 -3.9 25
19:05 1011 29.85 841 24.83 -1.3 29.7 79 -4.4 24
19:10 1012 29.88 841 24.83 -1.2 29.8 77 -4.7 23.5
19:15 1012 29.88 841 24.83 -1.2 29.8 80 -4.2 24.4
19:20 1012 29.88 841 24.83 -1.4 29.4 82 -4.1 24.7
19:25 1012 29.88 841 24.83 -1.7 28.9 84 -4.2 24.5
19:30 1012 29.88 841 24.83 -1.8 28.7 84 -4.3 24.3
19:35 1012 29.88 841 24.83 -1.9 28.6 83 -4.4 24.1
19:40 1012 29.88 841 24.83 -1.8 28.7 79 -4.9 23.1
19:45 1012 29.88 841 24.83 -1.7 28.9 77 -5.2 22.7
19:50 1012 29.88 841 24.83 -1.5 29.3 76 -5.2 22.6
19:55 1012 29.88 841 24.83 -1.3 29.7 69 -6.3 20.7
20:00 1012 29.88 841 24.83 -0.9 30.4 66 -6.5 20.3
20:05 1012 29.88 841 24.83 -0.7 30.8 66 -6.2 20.8
20:10 1012 29.88 841 24.83 -0.7 30.7 64 -6.8 19.8
20:15 1012 29.88 841 24.83 -0.8 30.6 64 -6.7 19.9
20:20 1012 29.88 841 24.83 -0.8 30.5 64 -6.7 19.9
20:25 1012 29.88 841 24.83 -0.9 30.4 65 -6.6 20.1
20:30 1012 29.88 842 24.86 -1 30.3 65 -6.8 19.8
20:35 1012 29.88 842 24.86 -1 30.1 66 -6.6 20.1
20:40 1012 29.88 842 24.86 -1.1 30 66 -6.6 20.1
20:45 1013 29.91 842 24.86 -1.3 29.7 68 -6.4 20.4
20:50 1013 29.91 842 24.86 -1.6 29.2 72 -6.1 21.1
20:55 1013 29.91 842 24.86 -1.9 28.6 73 -6.1 21
21:00 1013 29.91 842 24.86 -1.9 28.6 72 -6.3 20.7
21:05 1013 29.91 842 24.86 -2.1 28.2 73 -6.2 20.8
21:10 1013 29.91 842 24.86 -2.1 28.3 72 -6.4 20.5
21:15 1013 29.91 842 24.86 -1.9 28.7 68 -7 19.4
21:20 1013 29.91 842 24.86 -1.4 29.4 65 -7.1 19.2
21:25 1013 29.91 842 24.86 -1.2 29.9 63 -7.4 18.7
21:30 1013 29.91 842 24.86 -0.9 30.3 61 -7.5 18.4
21:35 1013 29.91 842 24.86 -0.9 30.4 61 -7.4 18.7
21:40 1013 29.91 842 24.86 -0.9 30.3 62 -7.3 18.9
21:45 1013 29.91 842 24.86 -1 30.2 62 -7.4 18.7
21:50 1013 29.91 842 24.86 -1.1 30.1 61 -7.6 18.3
21:55 1013 29.91 843 24.89 -1 30.2 61 -7.5 18.5
22:00 1013 29.91 843 24.89 -1 30.1 61 -7.6 18.2
22:05 1013 29.91 843 24.89 -1.1 30.1 61 -7.7 18.1
22:10 1013 29.91 843 24.89 -1.1 30.1 60 -7.9 17.9
22:15 1013 29.91 843 24.89 -1 30.1 61 -7.7 18.2
22:20 1014 29.94 843 24.89 -1 30.2 60 -7.8 17.9
22:25 1014 29.94 843 24.89 -0.8 30.5 56 -8.5 16.7
22:30 1014 29.94 843 24.89 -0.7 30.8 58 -7.9 17.8
22:35 1014 29.94 843 24.89 -1 30.2 61 -7.6 18.3
22:40 1014 29.94 843 24.89 -1.4 29.4 63 -7.7 18.2
22:45 1014 29.94 843 24.89 -1.8 28.8 63 -8 17.7
22:50 1014 29.94 843 24.89 -1.9 28.6 62 -8.2 17.3
22:55 1014 29.94 843 24.89 -1.8 28.8 62 -8.1 17.5
23:00 1014 29.94 843 24.89 -1.6 29.1 60 -8.3 17
23:05 1014 29.94 843 24.89 -1.4 29.5 56 -9 15.8
23:10 1014 29.94 843 24.89 -1.2 29.9 59 -8.2 17.2
23:15 1014 29.94 843 24.89 -1.3 29.6 57 -8.7 16.4
23:20 1014 29.94 843 24.89 -1.4 29.4 61 -8 17.6
23:25 1014 29.94 843 24.89 -1.7 28.9 63 -7.8 17.9
23:30 1014 29.94 843 24.89 -2.1 28.2 68 -7.3 18.9
23:35 1014 29.94 843 24.89 -2.1 28.2 63 -8.2 17.2
23:40 1014 29.94 843 24.89 -2.1 28.3 65 -7.7 18.1
23:45 1014 29.94 843 24.89 -2.1 28.2 65 -7.8 18
23:50 1014 29.94 843 24.89 -2.2 28.1 66 -7.7 18.2
23:55 1014 29.94 843 24.89 -2.1 28.3 66 -7.7 18.2
24:00 1014 29.94 843 24.89 -2 28.4 64 -7.9 17.8